sensor_id;sensor_type;location;lat;lon;timestamp;temperature;humidity
21169;DHT22;10742;51.816;8.662;2023-02-01T00:00:15;9.00;95.00
21169;DHT22;10742;51.816;8.662;2023-02-01T00:03:19;9.00;95.00
21169;DHT22;10742;51.816;8.662;2023-02-01T00:06:21;9.00;95.00
21169;DHT22;10742;51.816;8.662;2023-02-01T00:09:24;9.00;95.00
21169;DHT22;10742;51.816;8.662;2023-02-01T00:12:26;9.00;95.00
21169;DHT22;10742;51.816;8.662;2023-02-01T00:15:28;9.00;95.00
21169;DHT22;10742;51.816;8.662;2023-02-01T00:18:30;9.00;95.00
21169;DHT22;10742;51.816;8.662;2023-02-01T00:21:33;9.00;95.30
21169;DHT22;10742;51.816;8.662;2023-02-01T00:24:35;9.00;95.00
21169;DHT22;10742;51.816;8.662;2023-02-01T00:27:38;9.00;95.00
21169;DHT22;10742;51.816;8.662;2023-02-01T00:30:40;8.90;94.90
21169;DHT22;10742;51.816;8.662;2023-02-01T00:33:47;8.90;95.00
21169;DHT22;10742;51.816;8.662;2023-02-01T00:36:50;8.90;94.90
21169;DHT22;10742;51.816;8.662;2023-02-01T00:39:53;8.90;94.90
21169;DHT22;10742;51.816;8.662;2023-02-01T00:42:57;8.90;94.90
21169;DHT22;10742;51.816;8.662;2023-02-01T00:46:00;8.90;94.90
21169;DHT22;10742;51.816;8.662;2023-02-01T00:49:03;8.90;95.00
21169;DHT22;10742;51.816;8.662;2023-02-01T00:52:05;8.90;95.00
21169;DHT22;10742;51.816;8.662;2023-02-01T00:55:08;8.90;95.00
21169;DHT22;10742;51.816;8.662;2023-02-01T00:58:10;8.90;95.00
21169;DHT22;10742;51.816;8.662;2023-02-01T01:01:22;8.80;95.00
21169;DHT22;10742;51.816;8.662;2023-02-01T01:04:25;8.80;95.00
21169;DHT22;10742;51.816;8.662;2023-02-01T01:07:28;8.90;95.00
21169;DHT22;10742;51.816;8.662;2023-02-01T01:10:30;8.80;95.00
21169;DHT22;10742;51.816;8.662;2023-02-01T01:13:32;8.90;95.10
21169;DHT22;10742;51.816;8.662;2023-02-01T01:16:35;8.80;95.10
21169;DHT22;10742;51.816;8.662;2023-02-01T01:19:37;8.90;95.10
21169;DHT22;10742;51.816;8.662;2023-02-01T01:22:39;8.80;95.10
21169;DHT22;10742;51.816;8.662;2023-02-01T01:25:42;8.80;95.20
21169;DHT22;10742;51.816;8.662;2023-02-01T01:28:44;8.80;95.20
21169;DHT22;10742;51.816;8.662;2023-02-01T01:31:47;8.90;95.20
21169;DHT22;10742;51.816;8.662;2023-02-01T01:34:49;8.90;95.20
21169;DHT22;10742;51.816;8.662;2023-02-01T01:37:51;8.90;95.30
21169;DHT22;10742;51.816;8.662;2023-02-01T01:40:54;8.90;95.30
21169;DHT22;10742;51.816;8.662;2023-02-01T01:44:01;8.90;95.30
21169;DHT22;10742;51.816;8.662;2023-02-01T01:47:05;8.90;95.40
21169;DHT22;10742;51.816;8.662;2023-02-01T01:50:10;8.90;95.40
21169;DHT22;10742;51.816;8.662;2023-02-01T01:53:18;8.90;95.50
21169;DHT22;10742;51.816;8.662;2023-02-01T01:56:22;9.00;95.50
21169;DHT22;10742;51.816;8.662;2023-02-01T01:59:25;8.90;95.50
21169;DHT22;10742;51.816;8.662;2023-02-01T02:02:27;9.00;95.60
21169;DHT22;10742;51.816;8.662;2023-02-01T02:05:30;9.00;95.60
21169;DHT22;10742;51.816;8.662;2023-02-01T02:08:32;9.00;95.60
21169;DHT22;10742;51.816;8.662;2023-02-01T02:11:35;9.00;95.70
21169;DHT22;10742;51.816;8.662;2023-02-01T02:14:37;9.00;95.70
21169;DHT22;10742;51.816;8.662;2023-02-01T02:17:53;9.10;95.70
21169;DHT22;10742;51.816;8.662;2023-02-01T02:21:23;9.00;95.80
21169;DHT22;10742;51.816;8.662;2023-02-01T02:28:11;9.10;95.80
21169;DHT22;10742;51.816;8.662;2023-02-01T02:31:40;9.10;95.80
21169;DHT22;10742;51.816;8.662;2023-02-01T02:34:57;9.10;95.70
21169;DHT22;10742;51.816;8.662;2023-02-01T02:38:12;9.20;95.70
21169;DHT22;10742;51.816;8.662;2023-02-01T02:44:54;9.20;95.60
21169;DHT22;10742;51.816;8.662;2023-02-01T02:48:42;9.20;95.60
21169;DHT22;10742;51.816;8.662;2023-02-01T02:51:53;9.20;95.50
21169;DHT22;10742;51.816;8.662;2023-02-01T02:55:14;9.20;95.50
21169;DHT22;10742;51.816;8.662;2023-02-01T02:58:19;9.20;95.50
21169;DHT22;10742;51.816;8.662;2023-02-01T03:01:41;9.20;95.40
21169;DHT22;10742;51.816;8.662;2023-02-01T03:05:02;9.30;95.40
21169;DHT22;10742;51.816;8.662;2023-02-01T03:11:15;9.30;95.30
21169;DHT22;10742;51.816;8.662;2023-02-01T03:14:18;9.30;95.30
21169;DHT22;10742;51.816;8.662;2023-02-01T03:17:30;9.30;95.60
21169;DHT22;10742;51.816;8.662;2023-02-01T03:20:37;9.30;95.10
21169;DHT22;10742;51.816;8.662;2023-02-01T03:23:42;9.30;95.10
21169;DHT22;10742;51.816;8.662;2023-02-01T03:26:55;9.30;95.00
21169;DHT22;10742;51.816;8.662;2023-02-01T03:30:08;9.30;94.90
21169;DHT22;10742;51.816;8.662;2023-02-01T03:33:16;9.30;95.00
21169;DHT22;10742;51.816;8.662;2023-02-01T03:39:57;9.40;95.00
21169;DHT22;10742;51.816;8.662;2023-02-01T03:43:04;9.40;94.90
21169;DHT22;10742;51.816;8.662;2023-02-01T03:46:11;9.40;94.90
21169;DHT22;10742;51.816;8.662;2023-02-01T03:49:29;9.40;94.80
21169;DHT22;10742;51.816;8.662;2023-02-01T03:52:39;9.40;94.70
21169;DHT22;10742;51.816;8.662;2023-02-01T03:55:43;9.50;94.70
21169;DHT22;10742;51.816;8.662;2023-02-01T03:58:46;9.50;94.70
21169;DHT22;10742;51.816;8.662;2023-02-01T04:02:07;9.50;94.70
21169;DHT22;10742;51.816;8.662;2023-02-01T04:05:09;9.50;94.60
21169;DHT22;10742;51.816;8.662;2023-02-01T04:08:15;9.50;94.60
21169;DHT22;10742;51.816;8.662;2023-02-01T04:11:18;9.50;94.60
21169;DHT22;10742;51.816;8.662;2023-02-01T04:14:20;9.50;94.50
21169;DHT22;10742;51.816;8.662;2023-02-01T04:17:22;9.50;94.50
21169;DHT22;10742;51.816;8.662;2023-02-01T04:20:25;9.50;94.50
21169;DHT22;10742;51.816;8.662;2023-02-01T04:23:28;9.50;94.50
21169;DHT22;10742;51.816;8.662;2023-02-01T04:26:30;9.50;94.50
21169;DHT22;10742;51.816;8.662;2023-02-01T04:29:33;9.60;94.50
21169;DHT22;10742;51.816;8.662;2023-02-01T04:32:36;9.60;94.40
21169;DHT22;10742;51.816;8.662;2023-02-01T04:35:39;9.50;94.40
21169;DHT22;10742;51.816;8.662;2023-02-01T04:38:41;9.50;94.40
21169;DHT22;10742;51.816;8.662;2023-02-01T04:41:43;9.60;94.40
21169;DHT22;10742;51.816;8.662;2023-02-01T04:44:45;9.60;94.40
21169;DHT22;10742;51.816;8.662;2023-02-01T04:47:48;9.60;94.30
21169;DHT22;10742;51.816;8.662;2023-02-01T04:50:50;9.60;94.30
21169;DHT22;10742;51.816;8.662;2023-02-01T04:53:53;9.60;94.30
21169;DHT22;10742;51.816;8.662;2023-02-01T04:56:57;9.60;94.30
21169;DHT22;10742;51.816;8.662;2023-02-01T04:59:59;9.60;94.20
21169;DHT22;10742;51.816;8.662;2023-02-01T05:03:03;9.60;94.20
21169;DHT22;10742;51.816;8.662;2023-02-01T05:06:05;9.70;94.30
21169;DHT22;10742;51.816;8.662;2023-02-01T05:09:08;9.60;94.20
21169;DHT22;10742;51.816;8.662;2023-02-01T05:12:10;9.60;94.30
21169;DHT22;10742;51.816;8.662;2023-02-01T05:15:32;9.60;94.30
21169;DHT22;10742;51.816;8.662;2023-02-01T05:18:34;9.70;94.30
21169;DHT22;10742;51.816;8.662;2023-02-01T05:21:36;9.70;94.30
21169;DHT22;10742;51.816;8.662;2023-02-01T05:24:38;9.70;94.30
21169;DHT22;10742;51.816;8.662;2023-02-01T05:27:41;9.70;94.30
21169;DHT22;10742;51.816;8.662;2023-02-01T05:30:43;9.70;94.30
21169;DHT22;10742;51.816;8.662;2023-02-01T05:33:46;9.70;94.30
21169;DHT22;10742;51.816;8.662;2023-02-01T05:36:49;9.70;94.30
21169;DHT22;10742;51.816;8.662;2023-02-01T05:39:51;9.60;94.30
21169;DHT22;10742;51.816;8.662;2023-02-01T05:42:53;9.60;94.40
21169;DHT22;10742;51.816;8.662;2023-02-01T05:45:55;9.60;94.40
21169;DHT22;10742;51.816;8.662;2023-02-01T05:48:58;9.60;94.40
21169;DHT22;10742;51.816;8.662;2023-02-01T05:52:00;9.60;94.40
21169;DHT22;10742;51.816;8.662;2023-02-01T05:55:03;9.60;94.40
21169;DHT22;10742;51.816;8.662;2023-02-01T05:58:06;9.60;94.40
21169;DHT22;10742;51.816;8.662;2023-02-01T06:01:08;9.60;94.40
21169;DHT22;10742;51.816;8.662;2023-02-01T06:04:10;9.60;94.40
21169;DHT22;10742;51.816;8.662;2023-02-01T06:07:12;9.60;94.40
21169;DHT22;10742;51.816;8.662;2023-02-01T06:10:16;9.60;94.40
21169;DHT22;10742;51.816;8.662;2023-02-01T06:13:18;9.50;94.40
21169;DHT22;10742;51.816;8.662;2023-02-01T06:16:22;9.50;94.40
21169;DHT22;10742;51.816;8.662;2023-02-01T06:19:25;9.50;94.40
21169;DHT22;10742;51.816;8.662;2023-02-01T06:22:27;9.60;94.40
21169;DHT22;10742;51.816;8.662;2023-02-01T06:25:30;9.60;94.80
21169;DHT22;10742;51.816;8.662;2023-02-01T06:28:32;9.50;94.40
21169;DHT22;10742;51.816;8.662;2023-02-01T06:31:35;9.50;94.40
21169;DHT22;10742;51.816;8.662;2023-02-01T06:34:37;9.60;94.40
21169;DHT22;10742;51.816;8.662;2023-02-01T06:37:41;9.60;94.40
21169;DHT22;10742;51.816;8.662;2023-02-01T06:40:44;9.60;94.40
21169;DHT22;10742;51.816;8.662;2023-02-01T06:43:46;9.60;94.40
21169;DHT22;10742;51.816;8.662;2023-02-01T06:46:49;9.60;94.40
21169;DHT22;10742;51.816;8.662;2023-02-01T06:49:51;9.50;94.40
21169;DHT22;10742;51.816;8.662;2023-02-01T06:52:54;9.60;94.40
21169;DHT22;10742;51.816;8.662;2023-02-01T06:55:58;9.60;94.40
21169;DHT22;10742;51.816;8.662;2023-02-01T06:59:04;9.60;94.40
21169;DHT22;10742;51.816;8.662;2023-02-01T07:02:12;9.60;94.30
21169;DHT22;10742;51.816;8.662;2023-02-01T07:05:15;9.60;94.30
21169;DHT22;10742;51.816;8.662;2023-02-01T07:08:17;9.60;94.30
21169;DHT22;10742;51.816;8.662;2023-02-01T07:11:21;9.60;94.30
21169;DHT22;10742;51.816;8.662;2023-02-01T07:14:23;9.70;94.30
21169;DHT22;10742;51.816;8.662;2023-02-01T07:17:26;9.60;94.30
21169;DHT22;10742;51.816;8.662;2023-02-01T07:20:28;9.70;94.30
21169;DHT22;10742;51.816;8.662;2023-02-01T07:23:31;9.70;94.30
21169;DHT22;10742;51.816;8.662;2023-02-01T07:26:33;9.70;94.60
21169;DHT22;10742;51.816;8.662;2023-02-01T07:29:35;9.70;94.20
21169;DHT22;10742;51.816;8.662;2023-02-01T07:32:38;9.70;94.20
21169;DHT22;10742;51.816;8.662;2023-02-01T07:35:40;9.70;94.20
21169;DHT22;10742;51.816;8.662;2023-02-01T07:38:44;9.70;94.20
21169;DHT22;10742;51.816;8.662;2023-02-01T07:41:47;9.70;94.20
21169;DHT22;10742;51.816;8.662;2023-02-01T07:44:49;9.80;94.20
21169;DHT22;10742;51.816;8.662;2023-02-01T07:47:52;9.80;94.20
21169;DHT22;10742;51.816;8.662;2023-02-01T07:51:08;9.80;94.20
21169;DHT22;10742;51.816;8.662;2023-02-01T07:54:10;9.80;94.10
21169;DHT22;10742;51.816;8.662;2023-02-01T07:57:13;9.80;94.10
21169;DHT22;10742;51.816;8.662;2023-02-01T08:00:15;9.80;94.10
21169;DHT22;10742;51.816;8.662;2023-02-01T08:03:37;9.80;94.10
21169;DHT22;10742;51.816;8.662;2023-02-01T08:06:41;9.80;94.10
21169;DHT22;10742;51.816;8.662;2023-02-01T08:09:43;9.80;94.10
21169;DHT22;10742;51.816;8.662;2023-02-01T08:12:46;9.90;94.10
21169;DHT22;10742;51.816;8.662;2023-02-01T08:15:58;9.80;94.10
21169;DHT22;10742;51.816;8.662;2023-02-01T08:19:01;9.90;94.10
21169;DHT22;10742;51.816;8.662;2023-02-01T08:22:05;9.90;94.10
21169;DHT22;10742;51.816;8.662;2023-02-01T08:25:09;9.80;94.10
21169;DHT22;10742;51.816;8.662;2023-02-01T08:28:11;9.90;94.20
21169;DHT22;10742;51.816;8.662;2023-02-01T08:31:16;9.90;94.20
21169;DHT22;10742;51.816;8.662;2023-02-01T08:34:18;9.90;94.10
21169;DHT22;10742;51.816;8.662;2023-02-01T08:37:21;9.90;94.20
21169;DHT22;10742;51.816;8.662;2023-02-01T08:40:24;9.90;94.20
21169;DHT22;10742;51.816;8.662;2023-02-01T08:43:27;9.90;94.20
21169;DHT22;10742;51.816;8.662;2023-02-01T08:46:29;10.00;94.20
21169;DHT22;10742;51.816;8.662;2023-02-01T08:49:31;10.00;94.20
21169;DHT22;10742;51.816;8.662;2023-02-01T08:52:34;10.00;94.20
21169;DHT22;10742;51.816;8.662;2023-02-01T08:55:39;10.10;94.20
21169;DHT22;10742;51.816;8.662;2023-02-01T08:58:41;10.10;94.20
21169;DHT22;10742;51.816;8.662;2023-02-01T09:01:44;10.10;94.20
21169;DHT22;10742;51.816;8.662;2023-02-01T09:04:47;10.10;94.20
21169;DHT22;10742;51.816;8.662;2023-02-01T09:07:49;10.10;94.10
21169;DHT22;10742;51.816;8.662;2023-02-01T09:10:51;10.10;94.10
21169;DHT22;10742;51.816;8.662;2023-02-01T09:13:53;10.20;94.10
21169;DHT22;10742;51.816;8.662;2023-02-01T09:16:56;10.20;94.10
21169;DHT22;10742;51.816;8.662;2023-02-01T09:19:58;10.20;94.00
21169;DHT22;10742;51.816;8.662;2023-02-01T09:23:00;10.20;94.00
21169;DHT22;10742;51.816;8.662;2023-02-01T09:26:04;10.20;94.00
21169;DHT22;10742;51.816;8.662;2023-02-01T09:29:06;10.20;94.00
21169;DHT22;10742;51.816;8.662;2023-02-01T09:32:14;10.30;94.00
21169;DHT22;10742;51.816;8.662;2023-02-01T09:35:16;10.30;94.00
21169;DHT22;10742;51.816;8.662;2023-02-01T09:38:19;10.30;94.00
21169;DHT22;10742;51.816;8.662;2023-02-01T09:48:20;10.40;93.70
21169;DHT22;10742;51.816;8.662;2023-02-01T09:51:32;10.40;93.80
21169;DHT22;10742;51.816;8.662;2023-02-01T09:54:44;10.40;93.70
21169;DHT22;10742;51.816;8.662;2023-02-01T09:57:53;10.40;93.70
21169;DHT22;10742;51.816;8.662;2023-02-01T10:00:59;10.40;93.70
21169;DHT22;10742;51.816;8.662;2023-02-01T10:04:09;10.40;93.80
21169;DHT22;10742;51.816;8.662;2023-02-01T10:07:24;10.40;93.70
21169;DHT22;10742;51.816;8.662;2023-02-01T10:10:41;10.40;93.70
21169;DHT22;10742;51.816;8.662;2023-02-01T10:13:59;10.40;93.70
21169;DHT22;10742;51.816;8.662;2023-02-01T10:21:04;10.30;93.60
21169;DHT22;10742;51.816;8.662;2023-02-01T10:24:21;10.40;93.60
21169;DHT22;10742;51.816;8.662;2023-02-01T10:27:35;10.40;93.80
21169;DHT22;10742;51.816;8.662;2023-02-01T10:30:43;10.40;93.70
21169;DHT22;10742;51.816;8.662;2023-02-01T10:33:49;10.40;93.70
21169;DHT22;10742;51.816;8.662;2023-02-01T10:36:56;10.50;93.80
21169;DHT22;10742;51.816;8.662;2023-02-01T10:40:23;10.50;93.80
21169;DHT22;10742;51.816;8.662;2023-02-01T10:43:26;10.50;93.70
21169;DHT22;10742;51.816;8.662;2023-02-01T10:46:30;10.50;93.80
21169;DHT22;10742;51.816;8.662;2023-02-01T10:49:39;10.60;93.70
21169;DHT22;10742;51.816;8.662;2023-02-01T10:52:56;10.60;93.60
21169;DHT22;10742;51.816;8.662;2023-02-01T10:56:06;10.60;93.50
21169;DHT22;10742;51.816;8.662;2023-02-01T10:59:17;10.60;93.60
21169;DHT22;10742;51.816;8.662;2023-02-01T11:02:32;10.60;93.50
21169;DHT22;10742;51.816;8.662;2023-02-01T11:05:44;10.60;93.50
21169;DHT22;10742;51.816;8.662;2023-02-01T11:08:52;10.60;93.50
21169;DHT22;10742;51.816;8.662;2023-02-01T11:11:59;10.60;93.50
21169;DHT22;10742;51.816;8.662;2023-02-01T11:18:28;10.60;93.40
21169;DHT22;10742;51.816;8.662;2023-02-01T11:21:31;10.70;93.50
21169;DHT22;10742;51.816;8.662;2023-02-01T11:24:35;10.70;93.60
21169;DHT22;10742;51.816;8.662;2023-02-01T11:27:40;10.70;93.50
21169;DHT22;10742;51.816;8.662;2023-02-01T11:30:56;10.70;93.60
21169;DHT22;10742;51.816;8.662;2023-02-01T11:34:16;10.70;93.50
21169;DHT22;10742;51.816;8.662;2023-02-01T11:37:36;10.70;93.40
21169;DHT22;10742;51.816;8.662;2023-02-01T11:40:39;10.70;93.30
21169;DHT22;10742;51.816;8.662;2023-02-01T11:50:42;10.70;93.20
21169;DHT22;10742;51.816;8.662;2023-02-01T12:21:42;10.70;93.40
21169;DHT22;10742;51.816;8.662;2023-02-01T12:28:46;10.70;93.50
21169;DHT22;10742;51.816;8.662;2023-02-01T12:32:29;10.60;93.50
21169;DHT22;10742;51.816;8.662;2023-02-01T12:36:03;10.60;93.60
21169;DHT22;10742;51.816;8.662;2023-02-01T12:45:41;10.60;93.80
21169;DHT22;10742;51.816;8.662;2023-02-01T12:48:55;10.60;93.80
21169;DHT22;10742;51.816;8.662;2023-02-01T12:52:10;10.50;93.90
21169;DHT22;10742;51.816;8.662;2023-02-01T12:55:35;10.50;93.90
21169;DHT22;10742;51.816;8.662;2023-02-01T12:58:46;10.50;94.00
21169;DHT22;10742;51.816;8.662;2023-02-01T13:01:56;10.40;93.90
21169;DHT22;10742;51.816;8.662;2023-02-01T13:08:26;10.40;94.10
21169;DHT22;10742;51.816;8.662;2023-02-01T13:11:34;10.30;94.50
21169;DHT22;10742;51.816;8.662;2023-02-01T13:14:49;10.30;94.20
21169;DHT22;10742;51.816;8.662;2023-02-01T13:17:59;10.30;94.40
21169;DHT22;10742;51.816;8.662;2023-02-01T13:21:12;10.20;94.40
21169;DHT22;10742;51.816;8.662;2023-02-01T13:24:30;10.20;94.40
21169;DHT22;10742;51.816;8.662;2023-02-01T13:27:34;10.10;94.50
21169;DHT22;10742;51.816;8.662;2023-02-01T13:41:04;10.10;94.90
21169;DHT22;10742;51.816;8.662;2023-02-01T13:44:16;10.10;94.90
21169;DHT22;10742;51.816;8.662;2023-02-01T13:47:34;10.10;95.00
21169;DHT22;10742;51.816;8.662;2023-02-01T13:50:39;10.10;95.10
21169;DHT22;10742;51.816;8.662;2023-02-01T13:53:47;10.10;95.00
21169;DHT22;10742;51.816;8.662;2023-02-01T13:56:50;10.10;95.10
21169;DHT22;10742;51.816;8.662;2023-02-01T13:59:53;10.00;95.00
21169;DHT22;10742;51.816;8.662;2023-02-01T14:09:34;10.00;95.20
21169;DHT22;10742;51.816;8.662;2023-02-01T14:12:47;10.10;95.30
21169;DHT22;10742;51.816;8.662;2023-02-01T14:16:11;10.10;95.40
21169;DHT22;10742;51.816;8.662;2023-02-01T14:22:33;10.10;95.30
21169;DHT22;10742;51.816;8.662;2023-02-01T14:25:36;10.10;95.40
21169;DHT22;10742;51.816;8.662;2023-02-01T14:32:17;10.10;95.40
21169;DHT22;10742;51.816;8.662;2023-02-01T14:35:24;10.20;95.30
21169;DHT22;10742;51.816;8.662;2023-02-01T14:38:28;10.20;95.40
21169;DHT22;10742;51.816;8.662;2023-02-01T14:41:34;10.20;95.30
21169;DHT22;10742;51.816;8.662;2023-02-01T14:44:37;10.20;95.30
21169;DHT22;10742;51.816;8.662;2023-02-01T14:47:40;10.20;95.40
21169;DHT22;10742;51.816;8.662;2023-02-01T14:50:47;10.20;95.40
21169;DHT22;10742;51.816;8.662;2023-02-01T14:53:50;10.20;95.40
21169;DHT22;10742;51.816;8.662;2023-02-01T14:56:54;10.30;95.40
21169;DHT22;10742;51.816;8.662;2023-02-01T15:00:49;10.30;95.40
21169;DHT22;10742;51.816;8.662;2023-02-01T15:06:58;10.30;95.40
21169;DHT22;10742;51.816;8.662;2023-02-01T15:10:06;10.30;95.50
21169;DHT22;10742;51.816;8.662;2023-02-01T15:13:21;10.30;95.40
21169;DHT22;10742;51.816;8.662;2023-02-01T15:16:25;10.20;95.60
21169;DHT22;10742;51.816;8.662;2023-02-01T15:19:29;10.10;94.90
21169;DHT22;10742;51.816;8.662;2023-02-01T15:22:32;10.00;94.90
21169;DHT22;10742;51.816;8.662;2023-02-01T15:25:37;9.90;94.80
21169;DHT22;10742;51.816;8.662;2023-02-01T15:28:40;9.80;94.80
21169;DHT22;10742;51.816;8.662;2023-02-01T15:31:49;9.70;94.80
21169;DHT22;10742;51.816;8.662;2023-02-01T15:34:51;9.60;94.90
21169;DHT22;10742;51.816;8.662;2023-02-01T15:41:28;9.50;95.20
21169;DHT22;10742;51.816;8.662;2023-02-01T15:44:37;9.40;95.20
21169;DHT22;10742;51.816;8.662;2023-02-01T15:47:40;9.40;95.20
21169;DHT22;10742;51.816;8.662;2023-02-01T15:50:44;9.40;95.30
21169;DHT22;10742;51.816;8.662;2023-02-01T15:53:55;9.30;95.30
21169;DHT22;10742;51.816;8.662;2023-02-01T15:57:00;9.30;95.30
21169;DHT22;10742;51.816;8.662;2023-02-01T16:00:23;9.30;95.40
21169;DHT22;10742;51.816;8.662;2023-02-01T16:06:51;9.30;95.80
21169;DHT22;10742;51.816;8.662;2023-02-01T16:09:57;9.30;95.90
21169;DHT22;10742;51.816;8.662;2023-02-01T16:13:00;9.30;95.80
21169;DHT22;10742;51.816;8.662;2023-02-01T16:16:03;9.30;95.90
21169;DHT22;10742;51.816;8.662;2023-02-01T16:19:09;9.30;95.90
21169;DHT22;10742;51.816;8.662;2023-02-01T16:22:12;9.30;95.90
21169;DHT22;10742;51.816;8.662;2023-02-01T16:25:15;9.30;96.00
21169;DHT22;10742;51.816;8.662;2023-02-01T16:28:17;9.30;96.10
21169;DHT22;10742;51.816;8.662;2023-02-01T16:31:24;9.40;96.10
21169;DHT22;10742;51.816;8.662;2023-02-01T16:34:28;9.40;96.20
21169;DHT22;10742;51.816;8.662;2023-02-01T16:37:30;9.40;96.40
21169;DHT22;10742;51.816;8.662;2023-02-01T16:40:35;9.40;96.00
21169;DHT22;10742;51.816;8.662;2023-02-01T16:43:37;9.50;95.90
21169;DHT22;10742;51.816;8.662;2023-02-01T16:46:42;9.50;95.90
21169;DHT22;10742;51.816;8.662;2023-02-01T16:49:46;9.50;95.80
21169;DHT22;10742;51.816;8.662;2023-02-01T16:52:48;9.50;95.70
21169;DHT22;10742;51.816;8.662;2023-02-01T16:55:51;9.50;95.70
21169;DHT22;10742;51.816;8.662;2023-02-01T16:58:54;9.50;95.60
21169;DHT22;10742;51.816;8.662;2023-02-01T17:01:56;9.50;95.60
21169;DHT22;10742;51.816;8.662;2023-02-01T17:04:58;9.50;95.60
21169;DHT22;10742;51.816;8.662;2023-02-01T17:08:05;9.50;95.60
21169;DHT22;10742;51.816;8.662;2023-02-01T17:11:10;9.40;95.50
21169;DHT22;10742;51.816;8.662;2023-02-01T17:14:18;9.50;95.50
21169;DHT22;10742;51.816;8.662;2023-02-01T17:17:21;9.40;95.50
21169;DHT22;10742;51.816;8.662;2023-02-01T17:20:38;9.40;95.50
21169;DHT22;10742;51.816;8.662;2023-02-01T17:23:41;9.40;95.50
21169;DHT22;10742;51.816;8.662;2023-02-01T17:26:44;9.40;95.50
21169;DHT22;10742;51.816;8.662;2023-02-01T17:29:47;9.40;95.50
21169;DHT22;10742;51.816;8.662;2023-02-01T17:32:50;9.40;95.50
21169;DHT22;10742;51.816;8.662;2023-02-01T17:35:54;9.40;95.50
21169;DHT22;10742;51.816;8.662;2023-02-01T17:38:57;9.40;95.50
21169;DHT22;10742;51.816;8.662;2023-02-01T17:42:10;9.40;95.50
21169;DHT22;10742;51.816;8.662;2023-02-01T17:45:27;9.40;95.50
21169;DHT22;10742;51.816;8.662;2023-02-01T17:48:34;9.40;95.50
21169;DHT22;10742;51.816;8.662;2023-02-01T17:51:36;9.40;95.50
21169;DHT22;10742;51.816;8.662;2023-02-01T17:54:58;9.50;95.50
21169;DHT22;10742;51.816;8.662;2023-02-01T17:58:19;9.50;95.50
21169;DHT22;10742;51.816;8.662;2023-02-01T18:01:41;9.40;95.40
21169;DHT22;10742;51.816;8.662;2023-02-01T18:04:44;9.40;95.30
21169;DHT22;10742;51.816;8.662;2023-02-01T18:07:46;9.40;95.30
21169;DHT22;10742;51.816;8.662;2023-02-01T18:10:53;9.40;95.30
21169;DHT22;10742;51.816;8.662;2023-02-01T18:13:56;9.40;95.30
21169;DHT22;10742;51.816;8.662;2023-02-01T18:16:58;9.40;95.30
21169;DHT22;10742;51.816;8.662;2023-02-01T18:20:01;9.30;95.30
21169;DHT22;10742;51.816;8.662;2023-02-01T18:23:03;9.30;95.40
21169;DHT22;10742;51.816;8.662;2023-02-01T18:26:10;9.30;95.40
21169;DHT22;10742;51.816;8.662;2023-02-01T18:29:13;9.20;95.50
21169;DHT22;10742;51.816;8.662;2023-02-01T18:32:15;9.30;95.50
21169;DHT22;10742;51.816;8.662;2023-02-01T18:35:22;9.20;95.50
21169;DHT22;10742;51.816;8.662;2023-02-01T18:38:26;9.20;95.50
21169;DHT22;10742;51.816;8.662;2023-02-01T18:41:29;9.20;95.50
21169;DHT22;10742;51.816;8.662;2023-02-01T18:44:32;9.20;95.50
21169;DHT22;10742;51.816;8.662;2023-02-01T18:47:34;9.20;95.50
21169;DHT22;10742;51.816;8.662;2023-02-01T18:50:43;9.10;95.80
21169;DHT22;10742;51.816;8.662;2023-02-01T18:53:46;9.10;95.50
21169;DHT22;10742;51.816;8.662;2023-02-01T18:56:49;9.10;95.50
21169;DHT22;10742;51.816;8.662;2023-02-01T18:59:51;9.10;95.60
21169;DHT22;10742;51.816;8.662;2023-02-01T19:02:54;9.10;95.60
21169;DHT22;10742;51.816;8.662;2023-02-01T19:05:57;9.00;95.70
21169;DHT22;10742;51.816;8.662;2023-02-01T19:08:59;9.10;95.80
21169;DHT22;10742;51.816;8.662;2023-02-01T19:12:02;9.10;95.80
21169;DHT22;10742;51.816;8.662;2023-02-01T19:15:07;9.10;95.80
21169;DHT22;10742;51.816;8.662;2023-02-01T19:18:14;9.00;95.80
21169;DHT22;10742;51.816;8.662;2023-02-01T19:21:21;9.00;95.80
21169;DHT22;10742;51.816;8.662;2023-02-01T19:24:23;9.10;95.90
21169;DHT22;10742;51.816;8.662;2023-02-01T19:27:29;9.10;95.90
21169;DHT22;10742;51.816;8.662;2023-02-01T19:30:31;9.00;95.90
21169;DHT22;10742;51.816;8.662;2023-02-01T19:33:34;9.10;95.90
21169;DHT22;10742;51.816;8.662;2023-02-01T19:36:36;9.10;96.00
21169;DHT22;10742;51.816;8.662;2023-02-01T19:39:44;9.10;96.00
21169;DHT22;10742;51.816;8.662;2023-02-01T19:42:46;9.10;96.00
21169;DHT22;10742;51.816;8.662;2023-02-01T19:45:49;9.10;96.10
21169;DHT22;10742;51.816;8.662;2023-02-01T19:48:51;9.10;96.10
21169;DHT22;10742;51.816;8.662;2023-02-01T19:51:54;9.10;96.10
21169;DHT22;10742;51.816;8.662;2023-02-01T19:54:56;9.20;96.10
21169;DHT22;10742;51.816;8.662;2023-02-01T19:57:59;9.20;96.10
21169;DHT22;10742;51.816;8.662;2023-02-01T20:01:03;9.20;96.10
21169;DHT22;10742;51.816;8.662;2023-02-01T20:04:08;9.30;96.10
21169;DHT22;10742;51.816;8.662;2023-02-01T20:07:11;9.20;96.10
21169;DHT22;10742;51.816;8.662;2023-02-01T20:10:14;9.30;96.10
21169;DHT22;10742;51.816;8.662;2023-02-01T20:13:16;9.30;96.00
21169;DHT22;10742;51.816;8.662;2023-02-01T20:16:19;9.30;95.90
21169;DHT22;10742;51.816;8.662;2023-02-01T20:19:22;9.30;95.90
21169;DHT22;10742;51.816;8.662;2023-02-01T20:22:24;9.30;95.80
21169;DHT22;10742;51.816;8.662;2023-02-01T20:25:26;9.20;95.70
21169;DHT22;10742;51.816;8.662;2023-02-01T20:28:29;9.20;95.70
21169;DHT22;10742;51.816;8.662;2023-02-01T20:31:32;9.20;95.60
21169;DHT22;10742;51.816;8.662;2023-02-01T20:34:35;9.20;95.60
21169;DHT22;10742;51.816;8.662;2023-02-01T20:37:38;9.20;95.60
21169;DHT22;10742;51.816;8.662;2023-02-01T20:40:40;9.20;95.50
21169;DHT22;10742;51.816;8.662;2023-02-01T20:43:42;9.20;95.60
21169;DHT22;10742;51.816;8.662;2023-02-01T20:46:45;9.10;95.50
21169;DHT22;10742;51.816;8.662;2023-02-01T20:49:48;9.10;95.50
21169;DHT22;10742;51.816;8.662;2023-02-01T20:52:50;9.10;95.50
21169;DHT22;10742;51.816;8.662;2023-02-01T20:55:54;9.10;95.60
21169;DHT22;10742;51.816;8.662;2023-02-01T20:58:57;9.00;95.60
21169;DHT22;10742;51.816;8.662;2023-02-01T21:02:04;9.10;95.60
21169;DHT22;10742;51.816;8.662;2023-02-01T21:05:07;9.10;95.50
21169;DHT22;10742;51.816;8.662;2023-02-01T21:08:11;9.10;95.50
21169;DHT22;10742;51.816;8.662;2023-02-01T21:11:14;9.10;95.50
21169;DHT22;10742;51.816;8.662;2023-02-01T21:14:18;9.00;95.50
21169;DHT22;10742;51.816;8.662;2023-02-01T21:17:21;9.10;95.50
21169;DHT22;10742;51.816;8.662;2023-02-01T21:20:24;9.10;95.50
21169;DHT22;10742;51.816;8.662;2023-02-01T21:23:26;9.10;95.50
21169;DHT22;10742;51.816;8.662;2023-02-01T21:26:30;9.10;95.50
21169;DHT22;10742;51.816;8.662;2023-02-01T21:29:44;9.10;95.60
21169;DHT22;10742;51.816;8.662;2023-02-01T21:32:47;9.10;95.60
21169;DHT22;10742;51.816;8.662;2023-02-01T21:35:50;9.10;95.70
21169;DHT22;10742;51.816;8.662;2023-02-01T21:38:53;9.20;95.80